sensor_id;sensor_type;location;lat;lon;timestamp;temperature;humidity
5560;DHT22;2803;47.916;8.074;2022-12-05T00:01:42;6.00;99.90
5560;DHT22;2803;47.916;8.074;2022-12-05T00:04:11;5.80;99.90
5560;DHT22;2803;47.916;8.074;2022-12-05T00:06:39;5.70;99.90
5560;DHT22;2803;47.916;8.074;2022-12-05T00:09:07;5.70;99.90
5560;DHT22;2803;47.916;8.074;2022-12-05T00:11:36;5.80;99.90
5560;DHT22;2803;47.916;8.074;2022-12-05T00:14:04;6.20;99.90
5560;DHT22;2803;47.916;8.074;2022-12-05T00:16:32;5.90;99.90
5560;DHT22;2803;47.916;8.074;2022-12-05T00:19:01;5.90;99.90
5560;DHT22;2803;47.916;8.074;2022-12-05T00:21:31;6.00;99.90
5560;DHT22;2803;47.916;8.074;2022-12-05T00:23:59;5.70;99.90
5560;DHT22;2803;47.916;8.074;2022-12-05T00:26:27;5.70;99.90
5560;DHT22;2803;47.916;8.074;2022-12-05T00:28:55;5.80;99.90
5560;DHT22;2803;47.916;8.074;2022-12-05T00:31:23;5.20;99.90
5560;DHT22;2803;47.916;8.074;2022-12-05T00:33:50;4.90;99.90
5560;DHT22;2803;47.916;8.074;2022-12-05T00:36:20;4.60;99.90
5560;DHT22;2803;47.916;8.074;2022-12-05T00:38:48;5.00;99.90
5560;DHT22;2803;47.916;8.074;2022-12-05T00:41:16;5.20;99.90
5560;DHT22;2803;47.916;8.074;2022-12-05T00:43:43;5.50;99.90
5560;DHT22;2803;47.916;8.074;2022-12-05T00:46:12;5.50;99.90
5560;DHT22;2803;47.916;8.074;2022-12-05T00:48:39;5.70;99.90
5560;DHT22;2803;47.916;8.074;2022-12-05T00:51:09;5.90;99.90
5560;DHT22;2803;47.916;8.074;2022-12-05T00:53:37;6.00;99.90
5560;DHT22;2803;47.916;8.074;2022-12-05T00:56:05;5.80;99.90
5560;DHT22;2803;47.916;8.074;2022-12-05T00:58:32;6.00;99.90
5560;DHT22;2803;47.916;8.074;2022-12-05T01:01:05;5.90;99.90
5560;DHT22;2803;47.916;8.074;2022-12-05T01:03:31;5.80;99.90
5560;DHT22;2803;47.916;8.074;2022-12-05T01:05:58;5.90;99.90
5560;DHT22;2803;47.916;8.074;2022-12-05T01:08:25;6.10;99.90
5560;DHT22;2803;47.916;8.074;2022-12-05T01:10:55;6.20;99.90
5560;DHT22;2803;47.916;8.074;2022-12-05T01:13:22;6.00;99.90
5560;DHT22;2803;47.916;8.074;2022-12-05T01:15:49;5.90;99.90
5560;DHT22;2803;47.916;8.074;2022-12-05T01:18:16;5.70;99.90
5560;DHT22;2803;47.916;8.074;2022-12-05T01:20:44;5.80;99.90
5560;DHT22;2803;47.916;8.074;2022-12-05T01:23:11;5.90;99.90
5560;DHT22;2803;47.916;8.074;2022-12-05T01:25:38;6.00;99.90
5560;DHT22;2803;47.916;8.074;2022-12-05T01:28:07;5.90;99.90
5560;DHT22;2803;47.916;8.074;2022-12-05T01:30:36;5.90;99.90
5560;DHT22;2803;47.916;8.074;2022-12-05T01:33:03;5.80;99.90
5560;DHT22;2803;47.916;8.074;2022-12-05T01:35:30;5.80;99.90
5560;DHT22;2803;47.916;8.074;2022-12-05T01:37:57;5.90;99.90
5560;DHT22;2803;47.916;8.074;2022-12-05T01:40:24;6.00;99.90
5560;DHT22;2803;47.916;8.074;2022-12-05T01:42:51;6.10;99.90
5560;DHT22;2803;47.916;8.074;2022-12-05T01:45:23;6.10;99.90
5560;DHT22;2803;47.916;8.074;2022-12-05T01:47:53;6.00;99.90
5560;DHT22;2803;47.916;8.074;2022-12-05T01:50:19;5.60;99.90
5560;DHT22;2803;47.916;8.074;2022-12-05T01:52:46;5.80;99.90
5560;DHT22;2803;47.916;8.074;2022-12-05T01:55:14;5.70;99.90
5560;DHT22;2803;47.916;8.074;2022-12-05T01:57:43;5.70;99.90
5560;DHT22;2803;47.916;8.074;2022-12-05T02:00:13;5.80;99.90
5560;DHT22;2803;47.916;8.074;2022-12-05T02:02:45;5.90;99.90
5560;DHT22;2803;47.916;8.074;2022-12-05T02:05:17;5.90;99.90
5560;DHT22;2803;47.916;8.074;2022-12-05T02:07:46;6.10;99.90
5560;DHT22;2803;47.916;8.074;2022-12-05T02:10:13;5.90;99.90
5560;DHT22;2803;47.916;8.074;2022-12-05T02:12:40;6.10;99.90
5560;DHT22;2803;47.916;8.074;2022-12-05T02:15:21;6.00;99.90
5560;DHT22;2803;47.916;8.074;2022-12-05T02:17:57;6.10;99.90
5560;DHT22;2803;47.916;8.074;2022-12-05T02:20:36;6.30;99.90
5560;DHT22;2803;47.916;8.074;2022-12-05T02:29:14;6.40;99.90
5560;DHT22;2803;47.916;8.074;2022-12-05T02:31:50;6.30;99.90
5560;DHT22;2803;47.916;8.074;2022-12-05T02:34:24;6.40;99.90
5560;DHT22;2803;47.916;8.074;2022-12-05T02:36:58;6.40;99.90
5560;DHT22;2803;47.916;8.074;2022-12-05T02:39:33;5.90;99.90
5560;DHT22;2803;47.916;8.074;2022-12-05T02:42:05;6.00;99.90
5560;DHT22;2803;47.916;8.074;2022-12-05T02:44:36;6.10;99.90
5560;DHT22;2803;47.916;8.074;2022-12-05T02:47:07;6.20;99.90
5560;DHT22;2803;47.916;8.074;2022-12-05T02:49:36;5.90;99.90
5560;DHT22;2803;47.916;8.074;2022-12-05T02:52:06;6.20;99.90
5560;DHT22;2803;47.916;8.074;2022-12-05T02:54:36;5.70;99.90
5560;DHT22;2803;47.916;8.074;2022-12-05T02:57:03;6.00;99.90
5560;DHT22;2803;47.916;8.074;2022-12-05T02:59:31;5.90;99.90
5560;DHT22;2803;47.916;8.074;2022-12-05T03:01:57;5.70;99.90
5560;DHT22;2803;47.916;8.074;2022-12-05T03:04:26;6.10;99.90
5560;DHT22;2803;47.916;8.074;2022-12-05T03:06:56;6.40;99.90
5560;DHT22;2803;47.916;8.074;2022-12-05T03:09:27;5.80;99.90
5560;DHT22;2803;47.916;8.074;2022-12-05T03:12:00;6.10;99.90
5560;DHT22;2803;47.916;8.074;2022-12-05T03:14:30;6.30;99.90
5560;DHT22;2803;47.916;8.074;2022-12-05T03:17:01;6.30;99.90
5560;DHT22;2803;47.916;8.074;2022-12-05T03:19:33;6.70;99.90
5560;DHT22;2803;47.916;8.074;2022-12-05T03:22:02;6.20;99.90
5560;DHT22;2803;47.916;8.074;2022-12-05T03:24:35;6.50;99.90
5560;DHT22;2803;47.916;8.074;2022-12-05T03:27:07;6.80;99.90
5560;DHT22;2803;47.916;8.074;2022-12-05T03:29:41;6.40;99.90
5560;DHT22;2803;47.916;8.074;2022-12-05T03:32:17;6.20;99.90
5560;DHT22;2803;47.916;8.074;2022-12-05T03:34:54;6.40;99.90
5560;DHT22;2803;47.916;8.074;2022-12-05T03:37:28;6.50;99.90
5560;DHT22;2803;47.916;8.074;2022-12-05T03:40:03;6.50;99.90
5560;DHT22;2803;47.916;8.074;2022-12-05T03:42:34;6.80;99.90
5560;DHT22;2803;47.916;8.074;2022-12-05T03:45:05;6.90;99.90
5560;DHT22;2803;47.916;8.074;2022-12-05T03:47:38;7.00;99.90
5560;DHT22;2803;47.916;8.074;2022-12-05T03:50:13;7.10;99.90
5560;DHT22;2803;47.916;8.074;2022-12-05T03:52:44;7.20;99.90
5560;DHT22;2803;47.916;8.074;2022-12-05T03:55:12;7.10;99.90
5560;DHT22;2803;47.916;8.074;2022-12-05T03:57:43;7.10;99.90
5560;DHT22;2803;47.916;8.074;2022-12-05T04:00:13;7.10;99.90
5560;DHT22;2803;47.916;8.074;2022-12-05T04:02:45;7.20;99.90
5560;DHT22;2803;47.916;8.074;2022-12-05T04:05:18;7.30;99.90
5560;DHT22;2803;47.916;8.074;2022-12-05T04:07:49;7.30;99.90
5560;DHT22;2803;47.916;8.074;2022-12-05T04:10:22;7.30;99.90
5560;DHT22;2803;47.916;8.074;2022-12-05T04:12:53;7.40;99.90
5560;DHT22;2803;47.916;8.074;2022-12-05T04:15:23;7.30;99.90
5560;DHT22;2803;47.916;8.074;2022-12-05T04:17:56;7.10;99.90
5560;DHT22;2803;47.916;8.074;2022-12-05T04:20:27;6.80;99.90
5560;DHT22;2803;47.916;8.074;2022-12-05T04:23:09;6.90;99.90
5560;DHT22;2803;47.916;8.074;2022-12-05T04:25:41;7.10;99.90
5560;DHT22;2803;47.916;8.074;2022-12-05T04:28:19;7.00;99.90
5560;DHT22;2803;47.916;8.074;2022-12-05T04:30:49;7.00;99.90
5560;DHT22;2803;47.916;8.074;2022-12-05T04:33:25;7.10;99.90
5560;DHT22;2803;47.916;8.074;2022-12-05T04:36:00;6.70;99.90
5560;DHT22;2803;47.916;8.074;2022-12-05T04:38:32;6.90;99.90
5560;DHT22;2803;47.916;8.074;2022-12-05T04:41:03;7.10;99.90
5560;DHT22;2803;47.916;8.074;2022-12-05T04:43:33;7.20;99.90
5560;DHT22;2803;47.916;8.074;2022-12-05T04:46:03;7.20;99.90
5560;DHT22;2803;47.916;8.074;2022-12-05T04:48:33;7.20;99.90
5560;DHT22;2803;47.916;8.074;2022-12-05T04:51:03;6.90;99.90
5560;DHT22;2803;47.916;8.074;2022-12-05T04:53:32;6.70;99.90
5560;DHT22;2803;47.916;8.074;2022-12-05T04:56:01;7.00;99.90
5560;DHT22;2803;47.916;8.074;2022-12-05T04:58:29;7.10;99.90
5560;DHT22;2803;47.916;8.074;2022-12-05T05:01:01;7.20;99.90
5560;DHT22;2803;47.916;8.074;2022-12-05T05:03:33;7.20;99.90
5560;DHT22;2803;47.916;8.074;2022-12-05T05:06:03;7.00;99.90
5560;DHT22;2803;47.916;8.074;2022-12-05T05:08:30;6.70;99.90
5560;DHT22;2803;47.916;8.074;2022-12-05T05:11:03;6.90;99.90
5560;DHT22;2803;47.916;8.074;2022-12-05T05:13:32;7.10;99.90
5560;DHT22;2803;47.916;8.074;2022-12-05T05:15:58;7.20;99.90
5560;DHT22;2803;47.916;8.074;2022-12-05T05:18:25;7.20;99.90
5560;DHT22;2803;47.916;8.074;2022-12-05T05:20:51;7.10;99.90
5560;DHT22;2803;47.916;8.074;2022-12-05T05:23:19;7.20;99.90
5560;DHT22;2803;47.916;8.074;2022-12-05T05:25:51;7.10;99.90
5560;DHT22;2803;47.916;8.074;2022-12-05T05:28:17;7.10;99.90
5560;DHT22;2803;47.916;8.074;2022-12-05T05:30:44;7.20;99.90
5560;DHT22;2803;47.916;8.074;2022-12-05T05:33:11;7.20;99.90
5560;DHT22;2803;47.916;8.074;2022-12-05T05:35:38;7.20;99.90
5560;DHT22;2803;47.916;8.074;2022-12-05T05:38:04;7.30;99.90
5560;DHT22;2803;47.916;8.074;2022-12-05T05:40:35;7.40;99.90
5560;DHT22;2803;47.916;8.074;2022-12-05T05:43:03;7.20;99.90
5560;DHT22;2803;47.916;8.074;2022-12-05T05:45:30;7.40;99.90
5560;DHT22;2803;47.916;8.074;2022-12-05T05:47:56;7.50;99.90
5560;DHT22;2803;47.916;8.074;2022-12-05T05:50:23;7.30;99.90
5560;DHT22;2803;47.916;8.074;2022-12-05T05:52:50;7.30;99.90
5560;DHT22;2803;47.916;8.074;2022-12-05T05:55:17;7.40;99.90
5560;DHT22;2803;47.916;8.074;2022-12-05T05:57:45;7.40;99.90
5560;DHT22;2803;47.916;8.074;2022-12-05T06:00:12;7.40;99.90
5560;DHT22;2803;47.916;8.074;2022-12-05T06:02:39;7.30;99.90
5560;DHT22;2803;47.916;8.074;2022-12-05T06:05:06;7.20;99.90
5560;DHT22;2803;47.916;8.074;2022-12-05T06:07:33;7.30;99.90
5560;DHT22;2803;47.916;8.074;2022-12-05T06:09:59;7.40;99.90
5560;DHT22;2803;47.916;8.074;2022-12-05T06:12:26;7.40;99.90
5560;DHT22;2803;47.916;8.074;2022-12-05T06:14:54;7.40;99.90
5560;DHT22;2803;47.916;8.074;2022-12-05T06:17:20;7.30;99.90
5560;DHT22;2803;47.916;8.074;2022-12-05T06:19:47;7.30;99.90
5560;DHT22;2803;47.916;8.074;2022-12-05T06:22:14;7.20;99.90
5560;DHT22;2803;47.916;8.074;2022-12-05T06:24:40;7.30;99.90
5560;DHT22;2803;47.916;8.074;2022-12-05T06:27:07;7.30;99.90
5560;DHT22;2803;47.916;8.074;2022-12-05T06:29:33;7.30;99.90
5560;DHT22;2803;47.916;8.074;2022-12-05T06:32:02;7.40;99.90
5560;DHT22;2803;47.916;8.074;2022-12-05T06:34:28;7.30;99.90
5560;DHT22;2803;47.916;8.074;2022-12-05T06:36:57;7.40;99.90
5560;DHT22;2803;47.916;8.074;2022-12-05T06:39:23;7.60;99.90
5560;DHT22;2803;47.916;8.074;2022-12-05T06:41:50;7.60;99.90
5560;DHT22;2803;47.916;8.074;2022-12-05T06:44:16;7.70;99.90
5560;DHT22;2803;47.916;8.074;2022-12-05T06:46:43;7.60;99.90
5560;DHT22;2803;47.916;8.074;2022-12-05T06:49:11;7.70;99.90
5560;DHT22;2803;47.916;8.074;2022-12-05T06:51:38;7.60;99.90
5560;DHT22;2803;47.916;8.074;2022-12-05T06:54:04;7.60;99.90
5560;DHT22;2803;47.916;8.074;2022-12-05T06:56:31;7.60;99.90
5560;DHT22;2803;47.916;8.074;2022-12-05T06:58:57;7.40;99.90
5560;DHT22;2803;47.916;8.074;2022-12-05T07:01:24;7.50;99.90
5560;DHT22;2803;47.916;8.074;2022-12-05T07:04:06;7.40;99.90
5560;DHT22;2803;47.916;8.074;2022-12-05T07:06:35;7.30;99.90
5560;DHT22;2803;47.916;8.074;2022-12-05T07:09:03;7.20;99.90
5560;DHT22;2803;47.916;8.074;2022-12-05T07:11:30;7.20;99.90
5560;DHT22;2803;47.916;8.074;2022-12-05T07:13:57;7.30;99.90
5560;DHT22;2803;47.916;8.074;2022-12-05T07:16:24;7.40;99.90
5560;DHT22;2803;47.916;8.074;2022-12-05T07:18:50;7.40;99.90
5560;DHT22;2803;47.916;8.074;2022-12-05T07:21:17;7.00;99.90
5560;DHT22;2803;47.916;8.074;2022-12-05T07:23:47;6.90;99.90
5560;DHT22;2803;47.916;8.074;2022-12-05T07:26:17;7.10;99.90
5560;DHT22;2803;47.916;8.074;2022-12-05T07:28:45;7.10;99.90
5560;DHT22;2803;47.916;8.074;2022-12-05T07:31:15;7.30;99.90
5560;DHT22;2803;47.916;8.074;2022-12-05T07:33:42;7.20;99.90
5560;DHT22;2803;47.916;8.074;2022-12-05T07:36:11;6.90;99.90
5560;DHT22;2803;47.916;8.074;2022-12-05T07:38:38;7.00;99.90
5560;DHT22;2803;47.916;8.074;2022-12-05T07:41:09;7.00;99.90
5560;DHT22;2803;47.916;8.074;2022-12-05T07:43:35;7.20;99.90
5560;DHT22;2803;47.916;8.074;2022-12-05T07:46:02;7.10;99.90
5560;DHT22;2803;47.916;8.074;2022-12-05T07:48:29;7.00;99.90
5560;DHT22;2803;47.916;8.074;2022-12-05T07:50:59;7.20;99.90
5560;DHT22;2803;47.916;8.074;2022-12-05T07:53:26;7.40;99.90
5560;DHT22;2803;47.916;8.074;2022-12-05T07:55:53;7.60;99.90
5560;DHT22;2803;47.916;8.074;2022-12-05T07:58:21;7.80;99.90
5560;DHT22;2803;47.916;8.074;2022-12-05T08:00:47;7.50;99.90
5560;DHT22;2803;47.916;8.074;2022-12-05T08:03:14;7.20;99.90
5560;DHT22;2803;47.916;8.074;2022-12-05T08:05:40;6.70;99.90
5560;DHT22;2803;47.916;8.074;2022-12-05T08:08:07;6.90;99.90
5560;DHT22;2803;47.916;8.074;2022-12-05T08:10:34;7.20;99.90
5560;DHT22;2803;47.916;8.074;2022-12-05T08:13:00;7.40;99.90
5560;DHT22;2803;47.916;8.074;2022-12-05T08:15:28;7.50;99.90
5560;DHT22;2803;47.916;8.074;2022-12-05T08:17:57;7.50;99.90
5560;DHT22;2803;47.916;8.074;2022-12-05T08:20:23;7.60;99.90
5560;DHT22;2803;47.916;8.074;2022-12-05T08:22:51;7.60;99.90
5560;DHT22;2803;47.916;8.074;2022-12-05T08:25:18;7.60;99.90
5560;DHT22;2803;47.916;8.074;2022-12-05T08:27:45;7.50;99.90
5560;DHT22;2803;47.916;8.074;2022-12-05T08:30:12;7.60;99.90
5560;DHT22;2803;47.916;8.074;2022-12-05T08:32:40;7.70;99.90
5560;DHT22;2803;47.916;8.074;2022-12-05T08:35:07;7.80;99.90
5560;DHT22;2803;47.916;8.074;2022-12-05T08:37:34;7.80;99.90
5560;DHT22;2803;47.916;8.074;2022-12-05T08:40:01;8.00;99.90
5560;DHT22;2803;47.916;8.074;2022-12-05T08:42:27;7.80;99.90
5560;DHT22;2803;47.916;8.074;2022-12-05T08:44:54;7.90;99.90
5560;DHT22;2803;47.916;8.074;2022-12-05T08:47:21;7.90;99.90
5560;DHT22;2803;47.916;8.074;2022-12-05T08:49:49;8.00;99.90
5560;DHT22;2803;47.916;8.074;2022-12-05T08:52:15;8.00;99.90
5560;DHT22;2803;47.916;8.074;2022-12-05T08:54:42;7.90;99.90
5560;DHT22;2803;47.916;8.074;2022-12-05T08:57:09;8.00;99.90
5560;DHT22;2803;47.916;8.074;2022-12-05T08:59:35;8.00;99.90
5560;DHT22;2803;47.916;8.074;2022-12-05T09:02:02;8.00;99.90
5560;DHT22;2803;47.916;8.074;2022-12-05T09:04:28;8.10;99.90
5560;DHT22;2803;47.916;8.074;2022-12-05T09:06:56;8.00;99.90
5560;DHT22;2803;47.916;8.074;2022-12-05T09:09:23;8.00;99.90
5560;DHT22;2803;47.916;8.074;2022-12-05T09:11:50;8.10;99.90
5560;DHT22;2803;47.916;8.074;2022-12-05T09:14:17;7.90;99.90
5560;DHT22;2803;47.916;8.074;2022-12-05T09:16:45;8.00;99.90
5560;DHT22;2803;47.916;8.074;2022-12-05T09:19:13;8.20;99.90
5560;DHT22;2803;47.916;8.074;2022-12-05T09:21:41;8.30;99.90
5560;DHT22;2803;47.916;8.074;2022-12-05T09:24:11;8.20;99.90
5560;DHT22;2803;47.916;8.074;2022-12-05T09:26:38;8.20;99.90
5560;DHT22;2803;47.916;8.074;2022-12-05T09:29:05;8.30;99.90
5560;DHT22;2803;47.916;8.074;2022-12-05T09:31:32;8.30;99.90
5560;DHT22;2803;47.916;8.074;2022-12-05T09:33:59;8.10;99.90
5560;DHT22;2803;47.916;8.074;2022-12-05T09:36:28;8.30;99.90
5560;DHT22;2803;47.916;8.074;2022-12-05T09:38:59;8.40;99.90
5560;DHT22;2803;47.916;8.074;2022-12-05T09:41:41;8.50;99.90
5560;DHT22;2803;47.916;8.074;2022-12-05T09:44:38;8.50;99.90
5560;DHT22;2803;47.916;8.074;2022-12-05T09:47:13;8.40;99.90
5560;DHT22;2803;47.916;8.074;2022-12-05T09:49:48;8.50;99.90
5560;DHT22;2803;47.916;8.074;2022-12-05T09:52:23;8.70;99.90
5560;DHT22;2803;47.916;8.074;2022-12-05T09:54:51;8.70;99.90
5560;DHT22;2803;47.916;8.074;2022-12-05T09:57:27;8.70;99.90
5560;DHT22;2803;47.916;8.074;2022-12-05T09:59:55;8.60;99.90
5560;DHT22;2803;47.916;8.074;2022-12-05T10:02:28;8.70;99.90
5560;DHT22;2803;47.916;8.074;2022-12-05T10:05:00;8.80;99.90
5560;DHT22;2803;47.916;8.074;2022-12-05T10:07:34;8.80;99.90
5560;DHT22;2803;47.916;8.074;2022-12-05T10:10:18;8.80;99.90
5560;DHT22;2803;47.916;8.074;2022-12-05T10:13:00;8.90;99.90
5560;DHT22;2803;47.916;8.074;2022-12-05T10:15:31;9.00;99.90
5560;DHT22;2803;47.916;8.074;2022-12-05T10:18:03;9.20;99.90
5560;DHT22;2803;47.916;8.074;2022-12-05T10:20:39;9.20;99.90
5560;DHT22;2803;47.916;8.074;2022-12-05T10:23:13;9.20;99.90
5560;DHT22;2803;47.916;8.074;2022-12-05T10:25:41;9.20;99.90
5560;DHT22;2803;47.916;8.074;2022-12-05T10:28:14;9.30;99.90
5560;DHT22;2803;47.916;8.074;2022-12-05T10:30:44;9.10;99.90
5560;DHT22;2803;47.916;8.074;2022-12-05T10:33:14;9.30;99.90
5560;DHT22;2803;47.916;8.074;2022-12-05T10:35:43;9.50;99.90
5560;DHT22;2803;47.916;8.074;2022-12-05T10:38:13;9.60;99.90
5560;DHT22;2803;47.916;8.074;2022-12-05T10:40:44;9.40;99.90
5560;DHT22;2803;47.916;8.074;2022-12-05T10:43:17;9.50;99.90
5560;DHT22;2803;47.916;8.074;2022-12-05T10:45:46;9.50;99.90
5560;DHT22;2803;47.916;8.074;2022-12-05T10:48:16;9.60;99.90
5560;DHT22;2803;47.916;8.074;2022-12-05T10:50:45;9.60;99.90
5560;DHT22;2803;47.916;8.074;2022-12-05T10:53:15;9.50;99.90
5560;DHT22;2803;47.916;8.074;2022-12-05T10:55:44;9.50;99.90
5560;DHT22;2803;47.916;8.074;2022-12-05T10:58:15;9.70;99.90
5560;DHT22;2803;47.916;8.074;2022-12-05T11:00:44;9.80;99.90
5560;DHT22;2803;47.916;8.074;2022-12-05T11:03:23;9.90;99.90
5560;DHT22;2803;47.916;8.074;2022-12-05T11:05:52;10.00;99.90
5560;DHT22;2803;47.916;8.074;2022-12-05T11:08:22;10.10;99.90
5560;DHT22;2803;47.916;8.074;2022-12-05T11:10:59;10.20;99.90
5560;DHT22;2803;47.916;8.074;2022-12-05T11:13:28;10.20;99.90
5560;DHT22;2803;47.916;8.074;2022-12-05T11:15:54;10.00;99.90
5560;DHT22;2803;47.916;8.074;2022-12-05T11:18:27;10.10;99.90
5560;DHT22;2803;47.916;8.074;2022-12-05T11:20:55;10.00;99.90
5560;DHT22;2803;47.916;8.074;2022-12-05T11:23:25;10.10;99.90
5560;DHT22;2803;47.916;8.074;2022-12-05T11:25:52;10.10;99.90
5560;DHT22;2803;47.916;8.074;2022-12-05T11:28:30;10.20;99.90
5560;DHT22;2803;47.916;8.074;2022-12-05T11:30:59;10.30;99.90
5560;DHT22;2803;47.916;8.074;2022-12-05T11:33:28;10.20;99.90
5560;DHT22;2803;47.916;8.074;2022-12-05T11:36:02;9.90;99.90
5560;DHT22;2803;47.916;8.074;2022-12-05T11:38:31;9.80;99.90
5560;DHT22;2803;47.916;8.074;2022-12-05T11:41:11;9.80;99.90
5560;DHT22;2803;47.916;8.074;2022-12-05T11:43:55;9.90;99.90
5560;DHT22;2803;47.916;8.074;2022-12-05T11:46:32;9.80;99.90
5560;DHT22;2803;47.916;8.074;2022-12-05T11:49:14;10.00;99.90
5560;DHT22;2803;47.916;8.074;2022-12-05T11:51:46;10.10;99.90
5560;DHT22;2803;47.916;8.074;2022-12-05T11:54:29;9.90;99.90
5560;DHT22;2803;47.916;8.074;2022-12-05T11:57:05;9.70;99.90
5560;DHT22;2803;47.916;8.074;2022-12-05T11:59:52;9.50;99.90
5560;DHT22;2803;47.916;8.074;2022-12-05T12:02:33;9.50;99.90
5560;DHT22;2803;47.916;8.074;2022-12-05T12:05:13;9.50;99.90
5560;DHT22;2803;47.916;8.074;2022-12-05T12:07:51;9.60;99.90
5560;DHT22;2803;47.916;8.074;2022-12-05T12:10:24;9.50;99.90
5560;DHT22;2803;47.916;8.074;2022-12-05T12:13:06;9.70;99.90
5560;DHT22;2803;47.916;8.074;2022-12-05T12:15:45;9.60;99.90
5560;DHT22;2803;47.916;8.074;2022-12-05T12:18:33;9.60;99.90
5560;DHT22;2803;47.916;8.074;2022-12-05T12:21:12;9.70;99.90
5560;DHT22;2803;47.916;8.074;2022-12-05T12:23:54;9.80;99.90
5560;DHT22;2803;47.916;8.074;2022-12-05T12:26:31;9.50;99.90
5560;DHT22;2803;47.916;8.074;2022-12-05T12:29:08;8.80;99.90
5560;DHT22;2803;47.916;8.074;2022-12-05T12:31:49;8.90;99.90
5560;DHT22;2803;47.916;8.074;2022-12-05T12:34:33;8.90;99.90
5560;DHT22;2803;47.916;8.074;2022-12-05T12:37:08;8.80;99.90
5560;DHT22;2803;47.916;8.074;2022-12-05T12:39:43;8.90;99.90
5560;DHT22;2803;47.916;8.074;2022-12-05T12:42:19;9.10;99.90
5560;DHT22;2803;47.916;8.074;2022-12-05T12:45:01;9.00;99.90
5560;DHT22;2803;47.916;8.074;2022-12-05T12:47:38;8.90;99.90
5560;DHT22;2803;47.916;8.074;2022-12-05T12:50:12;9.20;99.90
5560;DHT22;2803;47.916;8.074;2022-12-05T12:52:52;9.20;99.90
5560;DHT22;2803;47.916;8.074;2022-12-05T12:55:25;9.00;99.90
5560;DHT22;2803;47.916;8.074;2022-12-05T12:58:03;9.10;99.90
5560;DHT22;2803;47.916;8.074;2022-12-05T13:00:40;9.00;99.90
5560;DHT22;2803;47.916;8.074;2022-12-05T13:03:15;8.90;99.90
5560;DHT22;2803;47.916;8.074;2022-12-05T13:05:46;9.00;99.90
5560;DHT22;2803;47.916;8.074;2022-12-05T13:08:20;8.90;99.90
5560;DHT22;2803;47.916;8.074;2022-12-05T13:10:50;8.90;99.90
5560;DHT22;2803;47.916;8.074;2022-12-05T13:13:21;9.00;99.90
5560;DHT22;2803;47.916;8.074;2022-12-05T13:15:52;8.80;99.90
5560;DHT22;2803;47.916;8.074;2022-12-05T13:18:23;9.10;99.90
5560;DHT22;2803;47.916;8.074;2022-12-05T13:20:53;9.10;99.90
5560;DHT22;2803;47.916;8.074;2022-12-05T13:23:22;9.20;99.90
5560;DHT22;2803;47.916;8.074;2022-12-05T13:25:50;8.90;99.90
5560;DHT22;2803;47.916;8.074;2022-12-05T13:28:26;8.80;99.90
5560;DHT22;2803;47.916;8.074;2022-12-05T13:30:53;8.90;99.90
5560;DHT22;2803;47.916;8.074;2022-12-05T13:33:29;8.80;99.90
5560;DHT22;2803;47.916;8.074;2022-12-05T13:36:03;8.80;99.90
5560;DHT22;2803;47.916;8.074;2022-12-05T13:38:45;8.80;99.90
5560;DHT22;2803;47.916;8.074;2022-12-05T13:41:38;9.00;99.90
5560;DHT22;2803;47.916;8.074;2022-12-05T13:44:28;9.00;99.90
5560;DHT22;2803;47.916;8.074;2022-12-05T13:46:58;8.90;99.90
5560;DHT22;2803;47.916;8.074;2022-12-05T13:49:31;8.90;99.90
5560;DHT22;2803;47.916;8.074;2022-12-05T13:52:07;9.00;99.90
5560;DHT22;2803;47.916;8.074;2022-12-05T13:54:42;9.00;99.90
5560;DHT22;2803;47.916;8.074;2022-12-05T14:00:22;8.70;99.90
5560;DHT22;2803;47.916;8.074;2022-12-05T14:02:54;8.90;99.90
5560;DHT22;2803;47.916;8.074;2022-12-05T14:05:42;8.90;99.90
5560;DHT22;2803;47.916;8.074;2022-12-05T14:11:09;8.90;99.90
5560;DHT22;2803;47.916;8.074;2022-12-05T14:13:39;9.00;99.90
5560;DHT22;2803;47.916;8.074;2022-12-05T14:19:15;8.80;99.90
5560;DHT22;2803;47.916;8.074;2022-12-05T14:21:57;8.80;99.90
5560;DHT22;2803;47.916;8.074;2022-12-05T14:24:33;8.70;99.90
5560;DHT22;2803;47.916;8.074;2022-12-05T14:27:06;8.60;99.90
5560;DHT22;2803;47.916;8.074;2022-12-05T14:29:38;8.50;99.90
5560;DHT22;2803;47.916;8.074;2022-12-05T14:32:18;8.80;99.90
5560;DHT22;2803;47.916;8.074;2022-12-05T14:34:54;8.70;99.90
5560;DHT22;2803;47.916;8.074;2022-12-05T14:37:26;8.60;99.90
5560;DHT22;2803;47.916;8.074;2022-12-05T14:39:56;8.40;99.90
5560;DHT22;2803;47.916;8.074;2022-12-05T14:42:32;8.60;99.90
5560;DHT22;2803;47.916;8.074;2022-12-05T14:45:16;8.60;99.90
5560;DHT22;2803;47.916;8.074;2022-12-05T14:47:50;8.60;99.90
5560;DHT22;2803;47.916;8.074;2022-12-05T14:50:33;8.80;99.90
5560;DHT22;2803;47.916;8.074;2022-12-05T14:58:47;8.80;99.90
5560;DHT22;2803;47.916;8.074;2022-12-05T15:01:18;8.70;99.90
5560;DHT22;2803;47.916;8.074;2022-12-05T15:04:02;8.70;99.90
5560;DHT22;2803;47.916;8.074;2022-12-05T15:06:31;8.70;99.90
5560;DHT22;2803;47.916;8.074;2022-12-05T15:09:03;8.60;99.90
5560;DHT22;2803;47.916;8.074;2022-12-05T15:11:32;8.80;99.90
5560;DHT22;2803;47.916;8.074;2022-12-05T15:14:04;8.80;99.90
5560;DHT22;2803;47.916;8.074;2022-12-05T15:16:36;8.60;99.90
5560;DHT22;2803;47.916;8.074;2022-12-05T15:19:07;8.50;99.90
5560;DHT22;2803;47.916;8.074;2022-12-05T15:21:42;8.60;99.90
5560;DHT22;2803;47.916;8.074;2022-12-05T15:24:12;8.70;99.90
5560;DHT22;2803;47.916;8.074;2022-12-05T15:26:44;8.80;99.90
5560;DHT22;2803;47.916;8.074;2022-12-05T15:29:15;8.80;99.90
5560;DHT22;2803;47.916;8.074;2022-12-05T15:31:44;8.70;99.90
5560;DHT22;2803;47.916;8.074;2022-12-05T15:34:14;8.70;99.90
5560;DHT22;2803;47.916;8.074;2022-12-05T15:36:46;8.70;99.90
5560;DHT22;2803;47.916;8.074;2022-12-05T15:39:18;8.60;99.90
5560;DHT22;2803;47.916;8.074;2022-12-05T15:41:50;8.60;99.90
5560;DHT22;2803;47.916;8.074;2022-12-05T15:44:17;8.60;99.90
5560;DHT22;2803;47.916;8.074;2022-12-05T15:46:50;8.60;99.90
5560;DHT22;2803;47.916;8.074;2022-12-05T15:49:20;8.70;99.90
5560;DHT22;2803;47.916;8.074;2022-12-05T15:51:49;8.70;99.90
5560;DHT22;2803;47.916;8.074;2022-12-05T15:54:20;8.40;99.90
5560;DHT22;2803;47.916;8.074;2022-12-05T15:56:55;8.40;99.90
5560;DHT22;2803;47.916;8.074;2022-12-05T15:59:28;8.50;99.90
5560;DHT22;2803;47.916;8.074;2022-12-05T16:02:00;8.50;99.90
5560;DHT22;2803;47.916;8.074;2022-12-05T16:04:32;8.20;99.90
5560;DHT22;2803;47.916;8.074;2022-12-05T16:07:04;8.30;99.90
5560;DHT22;2803;47.916;8.074;2022-12-05T16:09:32;8.30;99.90
5560;DHT22;2803;47.916;8.074;2022-12-05T16:12:16;8.40;99.90
5560;DHT22;2803;47.916;8.074;2022-12-05T16:14:44;8.30;99.90
5560;DHT22;2803;47.916;8.074;2022-12-05T16:17:15;8.10;99.90
5560;DHT22;2803;47.916;8.074;2022-12-05T16:19:42;8.20;99.90
5560;DHT22;2803;47.916;8.074;2022-12-05T16:22:19;8.00;99.90
5560;DHT22;2803;47.916;8.074;2022-12-05T16:24:53;8.20;99.90
5560;DHT22;2803;47.916;8.074;2022-12-05T16:27:23;8.30;99.90
5560;DHT22;2803;47.916;8.074;2022-12-05T16:30:06;8.40;99.90
5560;DHT22;2803;47.916;8.074;2022-12-05T16:32:37;8.40;99.90
5560;DHT22;2803;47.916;8.074;2022-12-05T16:35:26;8.40;99.90
5560;DHT22;2803;47.916;8.074;2022-12-05T16:38:04;8.30;99.90
5560;DHT22;2803;47.916;8.074;2022-12-05T16:40:31;8.40;99.90
5560;DHT22;2803;47.916;8.074;2022-12-05T16:43:02;8.40;99.90
5560;DHT22;2803;47.916;8.074;2022-12-05T16:45:39;8.30;99.90
5560;DHT22;2803;47.916;8.074;2022-12-05T16:48:16;8.30;99.90
5560;DHT22;2803;47.916;8.074;2022-12-05T16:50:43;8.30;99.90
5560;DHT22;2803;47.916;8.074;2022-12-05T16:53:18;8.30;99.90
5560;DHT22;2803;47.916;8.074;2022-12-05T16:55:45;8.30;99.90
5560;DHT22;2803;47.916;8.074;2022-12-05T16:58:19;8.30;99.90
5560;DHT22;2803;47.916;8.074;2022-12-05T17:00:46;8.20;99.90
5560;DHT22;2803;47.916;8.074;2022-12-05T17:03:13;8.20;99.90